Terminal Aerodrome Forecast
Issued by NWS Billings, MT

Home | Current Version | Previous Version | Text Only | Print | Product List | Glossary Off
Versions: 1 2 3 4 5 6 7 8 9 10 11 12 13 14 15 16 17 18 19 20 21 22 23 24 25 26 27 28 29 30 31 32 33 34 35 36 37 38 39 40 41 42

310
FTUS45 KBYZ 250520
TAFMLS
TAF
KMLS 250520Z 2506/2606 17003KT P6SM OVC080
     FM250900 30007KT P6SM VCSH BKN012
     FM251600 30011KT P6SM BKN030
     FM252100 29014KT 5SM -SHSN SCT015 BKN025
     FM260000 28013KT P6SM OVC035=

USA.gov is the U.S. government's official web portal to all federal, state and local government web resources and services.